createdAt,value
2023-04-02T00:00:57.332Z,6.85
2023-04-02T00:03:34.799Z,6.83
2023-04-02T00:06:02.537Z,6.81
2023-04-02T00:08:30.007Z,6.81
2023-04-02T00:10:57.632Z,6.80
2023-04-02T00:13:25.344Z,6.87
2023-04-02T00:15:52.907Z,6.90
2023-04-02T00:18:20.677Z,6.90
2023-04-02T00:20:48.271Z,6.89
2023-04-02T00:23:15.963Z,6.88
2023-04-02T00:25:45.385Z,6.93
2023-04-02T00:28:13.045Z,7.01
2023-04-02T00:30:40.673Z,7.02
2023-04-02T00:33:08.145Z,7.04
2023-04-02T00:35:35.966Z,7.05
2023-04-02T00:38:03.779Z,7.03
2023-04-02T00:40:31.289Z,6.99
2023-04-02T00:42:58.870Z,6.99
2023-04-02T00:45:28.655Z,6.98
2023-04-02T00:47:56.259Z,6.95
2023-04-02T00:50:23.995Z,6.92
2023-04-02T00:52:51.540Z,6.91
2023-04-02T00:55:19.024Z,6.87
2023-04-02T00:57:46.886Z,6.86
2023-04-02T01:00:15.922Z,6.86
2023-04-02T01:02:43.535Z,6.85
2023-04-02T01:05:13.639Z,6.83
2023-04-02T01:07:41.122Z,6.82
2023-04-02T01:10:09.137Z,6.79
2023-04-02T01:12:36.949Z,6.76
2023-04-02T01:15:04.519Z,6.73
2023-04-02T01:17:32.654Z,6.71
2023-04-02T01:20:01.649Z,6.70
2023-04-02T01:22:30.954Z,6.69
2023-04-02T01:24:58.674Z,6.70
2023-04-02T01:27:26.438Z,6.67
2023-04-02T01:29:55.555Z,6.65
2023-04-02T01:32:23.071Z,6.63
2023-04-02T01:34:50.918Z,6.63
2023-04-02T01:37:22.223Z,6.62
2023-04-02T01:39:49.736Z,6.61
2023-04-02T01:42:17.231Z,6.62
2023-04-02T01:44:44.748Z,6.61
2023-04-02T01:47:12.261Z,6.61
2023-04-02T01:49:40.303Z,6.61
2023-04-02T01:52:07.835Z,6.61
2023-04-02T01:54:37.829Z,6.60
2023-04-02T01:57:05.349Z,6.55
2023-04-02T01:59:33.379Z,6.52
2023-04-02T02:02:00.928Z,6.50
2023-04-02T02:04:28.488Z,6.49
2023-04-02T02:06:56.951Z,6.51
2023-04-02T02:09:24.475Z,6.48
2023-04-02T02:11:52.078Z,6.44
2023-04-02T02:14:19.586Z,6.40
2023-04-02T02:16:47.092Z,6.36
2023-04-02T02:19:14.733Z,6.33
2023-04-02T02:21:42.203Z,6.31
2023-04-02T02:24:09.652Z,6.30
2023-04-02T02:26:37.360Z,6.28
2023-04-02T02:29:04.849Z,6.24
2023-04-02T02:31:33.202Z,6.23
2023-04-02T02:34:01.026Z,6.20
2023-04-02T02:36:29.409Z,6.20
2023-04-02T02:38:56.880Z,6.19
2023-04-02T02:41:24.825Z,6.17
2023-04-02T02:43:52.316Z,6.16
2023-04-02T02:46:19.872Z,6.18
2023-04-02T02:48:47.683Z,6.19
2023-04-02T02:51:15.623Z,6.22
2023-04-02T02:53:43.249Z,6.25
2023-04-02T02:56:10.890Z,6.27
2023-04-02T02:58:38.364Z,6.27
2023-04-02T03:01:06.161Z,6.28
2023-04-02T03:03:34.377Z,6.30
2023-04-02T03:06:02.180Z,6.30
2023-04-02T03:08:29.682Z,6.31
2023-04-02T03:10:57.154Z,6.30
2023-04-02T03:13:24.655Z,6.29
2023-04-02T03:15:52.220Z,6.32
2023-04-02T03:18:19.768Z,6.35
2023-04-02T03:20:47.241Z,6.38
2023-04-02T03:23:14.708Z,6.42
2023-04-02T03:25:42.208Z,6.47
2023-04-02T03:28:09.821Z,6.52
2023-04-02T03:30:37.587Z,6.53
2023-04-02T03:33:05.250Z,6.57
2023-04-02T03:35:33.154Z,6.61
2023-04-02T03:38:00.937Z,6.57
2023-04-02T03:40:28.494Z,6.57
2023-04-02T03:42:56.169Z,6.61
2023-04-02T03:45:23.861Z,6.63
2023-04-02T03:47:51.566Z,6.62
2023-04-02T03:50:19.323Z,6.64
2023-04-02T03:52:46.928Z,6.66
2023-04-02T03:55:16.032Z,6.71
2023-04-02T03:57:43.629Z,6.71
2023-04-02T04:00:11.298Z,6.66
2023-04-02T04:02:38.851Z,6.65
2023-04-02T04:05:06.861Z,6.68
2023-04-02T04:07:34.466Z,6.72
2023-04-02T04:10:02.021Z,6.71
2023-04-02T04:12:29.576Z,6.73
2023-04-02T04:14:57.084Z,6.76
2023-04-02T04:17:24.829Z,6.79
2023-04-02T04:19:55.041Z,6.78
2023-04-02T04:22:30.491Z,6.76
2023-04-02T04:24:58.091Z,6.72
2023-04-02T04:27:25.638Z,6.68
2023-04-02T04:29:53.586Z,6.69
2023-04-02T04:32:21.149Z,6.69
2023-04-02T04:34:53.509Z,6.67
2023-04-02T04:37:21.718Z,6.68
2023-04-02T04:39:49.305Z,6.68
2023-04-02T04:42:16.812Z,6.72
2023-04-02T04:44:44.319Z,6.73
2023-04-02T04:47:11.868Z,6.75
2023-04-02T04:49:39.356Z,6.75
2023-04-02T04:52:07.112Z,6.78
2023-04-02T04:54:36.371Z,6.78
2023-04-02T04:57:04.018Z,6.78
2023-04-02T04:59:31.729Z,6.82
2023-04-02T05:01:59.251Z,6.86
2023-04-02T05:04:26.818Z,6.88
2023-04-02T05:06:54.410Z,6.92
2023-04-02T05:09:22.552Z,7.01
2023-04-02T05:11:50.021Z,7.04
2023-04-02T05:14:17.649Z,7.09
2023-04-02T05:16:45.194Z,7.11
2023-04-02T05:19:12.660Z,7.05
2023-04-02T05:21:40.166Z,7.03
2023-04-02T05:24:07.824Z,7.05
2023-04-02T05:26:35.403Z,7.01
2023-04-02T05:29:04.519Z,6.96
2023-04-02T05:31:32.909Z,6.95
2023-04-02T05:34:00.923Z,6.95
2023-04-02T05:36:29.313Z,6.98
2023-04-02T05:38:56.857Z,7.02
2023-04-02T05:41:24.509Z,7.03
2023-04-02T05:43:51.986Z,7.04
2023-04-02T05:46:19.532Z,7.04
2023-04-02T05:48:47.138Z,7.05
2023-04-02T05:51:14.625Z,7.08
2023-04-02T05:53:42.162Z,7.10
2023-04-02T05:56:09.613Z,7.11
2023-04-02T05:58:37.497Z,7.12
2023-04-02T06:01:05.091Z,7.13
2023-04-02T06:03:32.848Z,7.14
2023-04-02T06:06:00.511Z,7.13
2023-04-02T06:08:28.007Z,7.11
2023-04-02T06:10:55.500Z,7.08
2023-04-02T06:13:23.079Z,7.10
2023-04-02T06:15:50.837Z,7.13
2023-04-02T06:18:18.378Z,7.14
2023-04-02T06:20:46.184Z,7.17
2023-04-02T06:23:13.702Z,7.20
2023-04-02T06:25:41.487Z,7.19
2023-04-02T06:28:09.083Z,7.20
2023-04-02T06:30:36.631Z,7.24
2023-04-02T06:33:04.422Z,7.27
2023-04-02T06:35:32.169Z,7.25
2023-04-02T06:37:59.773Z,7.20
2023-04-02T06:40:27.300Z,7.16
2023-04-02T06:42:59.716Z,7.12
2023-04-02T06:45:27.247Z,7.11
2023-04-02T06:47:55.061Z,7.09
2023-04-02T06:50:23.345Z,7.06
2023-04-02T06:52:51.028Z,7.08
2023-04-02T06:55:18.660Z,7.16
2023-04-02T06:57:46.566Z,7.26
2023-04-02T07:00:14.895Z,7.31
2023-04-02T07:02:42.494Z,7.36
2023-04-02T07:05:10.487Z,7.45
2023-04-02T07:07:38.168Z,7.46
2023-04-02T07:10:07.069Z,7.49
2023-04-02T07:12:34.618Z,7.51
2023-04-02T07:15:02.077Z,7.52
2023-04-02T07:17:29.653Z,7.57
2023-04-02T07:19:57.466Z,7.61
2023-04-02T07:22:26.883Z,7.78
2023-04-02T07:24:54.553Z,7.80
2023-04-02T07:27:22.224Z,7.80
2023-04-02T07:29:49.720Z,7.75
2023-04-02T07:32:19.499Z,7.74
2023-04-02T07:34:49.010Z,7.72
2023-04-02T07:37:16.551Z,7.72
2023-04-02T07:39:44.086Z,7.83
2023-04-02T07:42:11.676Z,7.91
2023-04-02T07:44:39.185Z,7.93
2023-04-02T07:47:08.567Z,7.90
2023-04-02T07:49:36.218Z,7.93
2023-04-02T07:52:04.143Z,7.97
2023-04-02T07:54:31.624Z,7.90
2023-04-02T07:56:59.256Z,7.82
2023-04-02T07:59:26.856Z,7.78
2023-04-02T08:01:54.547Z,7.79
2023-04-02T08:04:22.204Z,7.74
2023-04-02T08:06:49.774Z,7.72
2023-04-02T08:09:17.254Z,7.72
2023-04-02T08:11:46.717Z,7.72
2023-04-02T08:14:14.436Z,7.72
2023-04-02T08:16:42.840Z,7.71
2023-04-02T08:19:10.447Z,7.70
2023-04-02T08:21:38.111Z,7.70
2023-04-02T08:24:05.959Z,7.73
2023-04-02T08:26:33.556Z,7.76
2023-04-02T08:29:01.080Z,7.78
2023-04-02T08:31:28.674Z,7.85
2023-04-02T08:33:57.121Z,7.88
2023-04-02T08:36:24.858Z,7.90
2023-04-02T08:38:52.468Z,7.95
2023-04-02T08:41:20.331Z,7.98
2023-04-02T08:43:48.786Z,8.00
2023-04-02T08:46:16.459Z,8.01
2023-04-02T08:48:44.232Z,8.04
2023-04-02T08:51:12.144Z,8.09
2023-04-02T08:53:40.052Z,8.11
2023-04-02T08:56:08.606Z,8.11
2023-04-02T08:58:36.338Z,8.13
2023-04-02T09:01:04.337Z,8.15
2023-04-02T09:03:32.152Z,8.19
2023-04-02T09:05:59.947Z,8.24
2023-04-02T09:08:27.484Z,8.27
2023-04-02T09:10:55.335Z,8.31
2023-04-02T09:13:22.848Z,8.32
2023-04-02T09:15:50.610Z,8.37
2023-04-02T09:18:18.427Z,8.44
2023-04-02T09:20:48.078Z,8.49
2023-04-02T09:23:15.581Z,8.54
2023-04-02T09:25:44.737Z,8.58
2023-04-02T09:28:14.014Z,8.59
2023-04-02T09:30:41.543Z,8.74
2023-04-02T09:33:09.367Z,8.71
2023-04-02T09:35:37.068Z,8.64
2023-04-02T09:38:06.155Z,8.57
2023-04-02T09:40:33.706Z,8.54
2023-04-02T09:43:01.205Z,8.58
2023-04-02T09:45:28.724Z,8.55
2023-04-02T09:47:56.489Z,8.49
2023-04-02T09:50:27.452Z,8.42
2023-04-02T09:52:55.002Z,8.33
2023-04-02T09:55:22.543Z,8.20
2023-04-02T09:57:50.511Z,8.17
2023-04-02T10:00:41.580Z,8.07
2023-04-02T10:03:05.784Z,7.80
2023-04-02T10:05:40.432Z,7.63
2023-04-02T10:08:09.010Z,7.51
2023-04-02T10:10:37.225Z,7.38
2023-04-02T10:13:05.009Z,7.14
2023-04-02T10:15:32.580Z,6.78
2023-04-02T10:18:00.432Z,6.39
2023-04-02T10:20:29.302Z,6.13
2023-04-02T10:22:58.196Z,5.93
2023-04-02T10:25:25.851Z,5.77
2023-04-02T10:27:53.430Z,5.66
2023-04-02T10:30:21.189Z,5.51
2023-04-02T10:32:48.724Z,5.36
2023-04-02T10:35:16.476Z,5.12
2023-04-02T10:37:44.015Z,4.96
2023-04-02T10:40:11.830Z,4.80
2023-04-02T10:42:39.381Z,4.61
2023-04-02T10:45:06.896Z,4.49
2023-04-02T10:47:34.468Z,4.37
2023-04-02T10:50:01.964Z,4.26
2023-04-02T10:52:29.552Z,4.15
2023-04-02T10:54:57.274Z,4.05
2023-04-02T10:57:24.788Z,3.96
2023-04-02T10:59:53.213Z,3.89
2023-04-02T11:02:20.764Z,3.88
2023-04-02T11:04:48.829Z,3.85
2023-04-02T11:07:17.314Z,3.77
2023-04-02T11:09:44.926Z,3.77
2023-04-02T11:12:12.441Z,3.73
2023-04-02T11:14:41.102Z,3.73
2023-04-02T11:17:08.591Z,3.72
2023-04-02T11:19:37.736Z,3.69
2023-04-02T11:22:06.855Z,3.65
2023-04-02T11:24:36.830Z,3.64
2023-04-02T11:27:04.315Z,3.65
2023-04-02T11:29:31.890Z,3.61
2023-04-02T11:31:59.382Z,3.53
2023-04-02T11:34:26.843Z,3.44
2023-04-02T11:36:54.333Z,3.36
2023-04-02T11:39:22.198Z,3.21
2023-04-02T11:41:49.829Z,3.09
2023-04-02T11:44:17.348Z,3.01
2023-04-02T11:46:45.601Z,2.96
2023-04-02T11:49:13.330Z,2.95
2023-04-02T11:51:40.913Z,3.01
2023-04-02T11:54:09.260Z,3.05
2023-04-02T11:56:36.755Z,3.05
2023-04-02T11:59:04.295Z,3.04
2023-04-02T12:01:31.796Z,3.02
2023-04-02T12:03:59.385Z,2.99
2023-04-02T12:06:27.161Z,3.04
2023-04-02T12:08:58.086Z,3.01
2023-04-02T12:11:25.926Z,2.97
2023-04-02T12:13:53.715Z,2.95
2023-04-02T12:16:21.348Z,2.95
2023-04-02T12:18:51.230Z,2.95
2023-04-02T12:21:18.810Z,2.91
2023-04-02T12:23:46.305Z,2.87
2023-04-02T12:26:14.447Z,2.86
2023-04-02T12:28:42.650Z,2.83
2023-04-02T12:31:10.171Z,2.79
2023-04-02T12:33:38.022Z,2.75
2023-04-02T12:36:05.781Z,2.80
2023-04-02T12:38:33.420Z,2.84
2023-04-02T12:41:01.309Z,2.85
2023-04-02T12:43:29.114Z,2.87
2023-04-02T12:45:56.743Z,2.91
2023-04-02T12:48:24.293Z,2.91
2023-04-02T12:50:52.051Z,2.87
2023-04-02T12:53:20.584Z,2.81
2023-04-02T12:55:48.560Z,2.76
2023-04-02T12:58:16.077Z,2.74
2023-04-02T13:00:43.538Z,2.73
2023-04-02T13:03:11.239Z,2.73
2023-04-02T13:05:40.330Z,2.69
2023-04-02T13:08:07.797Z,2.69
2023-04-02T13:10:35.501Z,2.67
2023-04-02T13:13:03.637Z,2.67
2023-04-02T13:15:32.031Z,2.66
2023-04-02T13:17:59.629Z,2.64
2023-04-02T13:20:27.187Z,2.62
2023-04-02T13:22:54.667Z,2.60
2023-04-02T13:25:22.216Z,2.56
2023-04-02T13:27:49.926Z,2.53
2023-04-02T13:30:17.702Z,2.50
2023-04-02T13:32:45.944Z,2.47
2023-04-02T13:35:13.517Z,2.45
2023-04-02T13:37:41.093Z,2.46
2023-04-02T13:40:09.317Z,2.46
2023-04-02T13:42:37.120Z,2.48
2023-04-02T13:45:05.007Z,2.49
2023-04-02T13:47:32.546Z,2.50
2023-04-02T13:50:00.201Z,2.52
2023-04-02T13:52:27.700Z,2.52
2023-04-02T13:54:55.197Z,2.51
2023-04-02T13:57:22.880Z,2.50
2023-04-02T13:59:50.507Z,2.48
2023-04-02T14:02:18.279Z,2.48
2023-04-02T14:04:48.696Z,2.46
2023-04-02T14:07:18.246Z,2.44
2023-04-02T14:09:47.986Z,2.42
2023-04-02T14:12:15.478Z,2.43
2023-04-02T14:14:42.959Z,2.44
2023-04-02T14:17:10.847Z,2.46
2023-04-02T14:19:38.420Z,2.47
2023-04-02T14:22:05.962Z,2.47
2023-04-02T14:24:33.541Z,2.46
2023-04-02T14:27:01.433Z,2.49
2023-04-02T14:29:29.897Z,2.48
2023-04-02T14:31:57.433Z,2.47
2023-04-02T14:34:24.921Z,2.49
2023-04-02T14:36:56.353Z,2.51
2023-04-02T14:39:23.995Z,2.51
2023-04-02T14:41:51.536Z,2.50
2023-04-02T14:44:18.987Z,2.51
2023-04-02T14:46:47.807Z,2.52
2023-04-02T14:49:15.542Z,2.52
2023-04-02T14:51:43.488Z,2.52
2023-04-02T14:54:11.236Z,2.52
2023-04-02T14:56:38.819Z,2.52
2023-04-02T14:59:06.598Z,2.52
2023-04-02T15:01:34.100Z,2.52
2023-04-02T15:04:02.360Z,2.52
2023-04-02T15:06:29.930Z,2.48
2023-04-02T15:09:08.461Z,2.48
2023-04-02T15:11:37.497Z,2.48
2023-04-02T15:14:04.982Z,2.45
2023-04-02T15:16:33.417Z,2.45
2023-04-02T15:19:01.287Z,2.45
2023-04-02T15:21:29.630Z,2.45
2023-04-02T15:23:57.552Z,2.43
2023-04-02T15:26:26.392Z,2.42
2023-04-02T15:28:53.973Z,2.41
2023-04-02T15:31:21.537Z,2.40
2023-04-02T15:33:49.060Z,2.39
2023-04-02T15:36:16.578Z,2.41
2023-04-02T15:38:44.047Z,2.40
2023-04-02T15:41:11.539Z,2.43
2023-04-02T15:43:39.056Z,2.41
2023-04-02T15:46:06.639Z,2.38
2023-04-02T15:48:34.323Z,2.35
2023-04-02T15:51:02.095Z,2.29
2023-04-02T15:53:31.272Z,2.25
2023-04-02T15:55:58.760Z,2.23
2023-04-02T15:58:26.574Z,2.26
2023-04-02T16:00:54.085Z,2.26
2023-04-02T16:03:23.023Z,2.27
2023-04-02T16:05:50.819Z,2.27
2023-04-02T16:08:18.324Z,2.24
2023-04-02T16:10:46.251Z,2.18
2023-04-02T16:13:13.909Z,2.13
2023-04-02T16:15:41.431Z,2.11
2023-04-02T16:18:08.909Z,2.06
2023-04-02T16:20:37.019Z,2.00
2023-04-02T16:23:04.649Z,1.96
2023-04-02T16:25:32.126Z,1.94
2023-04-02T16:27:59.659Z,1.94
2023-04-02T16:30:27.142Z,1.93
2023-04-02T16:32:54.694Z,1.93
2023-04-02T16:35:41.908Z,1.92
2023-04-02T16:38:09.763Z,1.86
2023-04-02T16:40:38.245Z,1.89
2023-04-02T16:43:06.273Z,1.87
2023-04-02T16:45:34.036Z,1.85
2023-04-02T16:48:01.888Z,1.84
2023-04-02T16:50:31.390Z,1.82
2023-04-02T16:53:01.896Z,1.84
2023-04-02T16:55:29.411Z,1.85
2023-04-02T16:57:56.869Z,1.87
2023-04-02T17:00:24.630Z,1.88
2023-04-02T17:02:52.211Z,1.92
2023-04-02T17:05:20.363Z,1.96
2023-04-02T17:07:48.117Z,1.96
2023-04-02T17:10:15.926Z,1.98
2023-04-02T17:12:43.733Z,1.99
2023-04-02T17:15:14.197Z,2.02
2023-04-02T17:17:52.294Z,2.02
2023-04-02T17:20:19.829Z,2.02
2023-04-02T17:22:47.733Z,2.02
2023-04-02T17:25:15.529Z,2.03
2023-04-02T17:27:43.026Z,2.03
2023-04-02T17:30:10.565Z,2.02
2023-04-02T17:32:38.209Z,2.00
2023-04-02T17:35:05.990Z,2.00
2023-04-02T17:37:33.705Z,1.98
2023-04-02T17:40:01.414Z,1.97
2023-04-02T17:42:29.112Z,1.95
2023-04-02T17:44:56.792Z,1.93
2023-04-02T17:47:25.806Z,1.93
2023-04-02T17:49:53.382Z,1.95
2023-04-02T17:52:21.010Z,1.93
2023-04-02T17:54:49.325Z,1.89
2023-04-02T17:57:16.883Z,1.88
2023-04-02T17:59:44.520Z,1.90
2023-04-02T18:02:12.452Z,1.91
2023-04-02T18:04:41.683Z,1.89
2023-04-02T18:07:09.178Z,1.83
2023-04-02T18:09:37.294Z,1.82
2023-04-02T18:12:04.770Z,1.80
2023-04-02T18:14:32.331Z,1.77
2023-04-02T18:16:59.875Z,1.73
2023-04-02T18:19:29.384Z,1.69
2023-04-02T18:21:58.382Z,1.67
2023-04-02T18:24:26.095Z,1.65
2023-04-02T18:26:53.950Z,1.61
2023-04-02T18:29:21.835Z,1.59
2023-04-02T18:31:51.467Z,1.56
2023-04-02T18:34:19.711Z,1.54
2023-04-02T18:36:47.295Z,1.56
2023-04-02T18:39:15.717Z,1.54
2023-04-02T18:41:43.326Z,1.50
2023-04-02T18:44:10.901Z,1.48
2023-04-02T18:46:39.195Z,1.44
2023-04-02T18:49:06.844Z,1.41
2023-04-02T18:51:34.483Z,1.40
2023-04-02T18:54:02.681Z,1.41
2023-04-02T18:56:30.918Z,1.41
2023-04-02T18:58:58.781Z,1.41
2023-04-02T19:01:26.661Z,1.42
2023-04-02T19:03:54.563Z,1.45
2023-04-02T19:06:22.320Z,1.48
2023-04-02T19:08:49.872Z,1.51
2023-04-02T19:11:17.803Z,1.53
2023-04-02T19:13:45.702Z,1.52
2023-04-02T19:16:13.613Z,1.53
2023-04-02T19:18:41.454Z,1.55
2023-04-02T19:21:15.233Z,1.58
2023-04-02T19:23:44.992Z,1.61
2023-04-02T19:26:12.820Z,1.58
2023-04-02T19:28:40.812Z,1.54
2023-04-02T19:31:09.292Z,1.52
2023-04-02T19:33:37.001Z,1.46
2023-04-02T19:36:04.557Z,1.39
2023-04-02T19:38:32.399Z,1.36
2023-04-02T19:41:00.538Z,1.39
2023-04-02T19:43:28.349Z,1.45
2023-04-02T19:45:56.195Z,1.50
2023-04-02T19:48:23.692Z,1.48
2023-04-02T19:50:51.364Z,1.47
2023-04-02T19:53:19.368Z,1.47
2023-04-02T19:55:47.125Z,1.45
2023-04-02T19:58:19.595Z,1.48
2023-04-02T20:00:47.659Z,1.53
2023-04-02T20:03:15.378Z,1.54
2023-04-02T20:05:42.886Z,1.56
2023-04-02T20:08:10.443Z,1.53
2023-04-02T20:10:38.130Z,1.46
2023-04-02T20:13:06.004Z,1.46
2023-04-02T20:15:33.667Z,1.48
2023-04-02T20:18:01.516Z,1.46
2023-04-02T20:20:29.315Z,1.41
2023-04-02T20:22:56.837Z,1.43
2023-04-02T20:25:24.501Z,1.41
2023-04-02T20:27:51.958Z,1.43
2023-04-02T20:30:19.446Z,1.41
2023-04-02T20:32:47.062Z,1.39
2023-04-02T20:35:14.665Z,1.42
2023-04-02T20:37:42.151Z,1.44
2023-04-02T20:40:10.163Z,1.42
2023-04-02T20:42:37.679Z,1.43
2023-04-02T20:45:06.183Z,1.43
2023-04-02T20:47:33.720Z,1.42
2023-04-02T20:50:01.548Z,1.39
2023-04-02T20:52:30.382Z,1.37
2023-04-02T20:54:58.046Z,1.36
2023-04-02T20:57:27.628Z,1.33
2023-04-02T20:59:55.371Z,1.30
2023-04-02T21:02:22.915Z,1.30
2023-04-02T21:04:50.696Z,1.32
2023-04-02T21:07:18.252Z,1.35
2023-04-02T21:09:45.952Z,1.29
2023-04-02T21:12:13.388Z,1.25
2023-04-02T21:14:41.019Z,1.22
2023-04-02T21:17:08.799Z,1.18
2023-04-02T21:19:36.494Z,1.16
2023-04-02T21:22:04.233Z,1.17
2023-04-02T21:24:31.734Z,1.17
2023-04-02T21:26:59.259Z,1.18
2023-04-02T21:29:26.744Z,1.15
2023-04-02T21:31:54.661Z,1.10
2023-04-02T21:34:22.293Z,1.09
2023-04-02T21:36:50.576Z,1.08
2023-04-02T21:39:18.172Z,1.07
2023-04-02T21:41:46.756Z,1.06
2023-04-02T21:44:14.590Z,1.03
2023-04-02T21:46:42.771Z,1.02
2023-04-02T21:49:10.322Z,1.04
2023-04-02T21:51:37.876Z,1.06
2023-04-02T21:54:05.420Z,1.06
2023-04-02T21:56:32.937Z,1.08
2023-04-02T21:59:02.121Z,1.07
2023-04-02T22:01:29.986Z,1.08
2023-04-02T22:03:57.804Z,1.07
2023-04-02T22:06:25.510Z,1.08
2023-04-02T22:08:53.092Z,1.12
2023-04-02T22:11:20.957Z,1.22
2023-04-02T22:13:48.433Z,1.24
2023-04-02T22:16:16.289Z,1.20
2023-04-02T22:18:43.911Z,1.21
2023-04-02T22:21:11.540Z,1.17
2023-04-02T22:23:39.024Z,1.13
2023-04-02T22:26:06.633Z,1.11
2023-04-02T22:28:34.267Z,1.15
2023-04-02T22:31:02.275Z,1.13
2023-04-02T22:33:32.286Z,1.12
2023-04-02T22:35:59.857Z,1.04
2023-04-02T22:38:27.528Z,1.03
2023-04-02T22:40:55.488Z,1.04
2023-04-02T22:43:22.984Z,0.99
2023-04-02T22:45:51.188Z,0.95
2023-04-02T22:48:18.678Z,0.91
2023-04-02T22:50:46.434Z,0.89
2023-04-02T22:53:15.384Z,0.86
2023-04-02T22:55:42.945Z,0.83
2023-04-02T22:58:10.566Z,0.80
2023-04-02T23:00:38.672Z,0.74
2023-04-02T23:03:06.727Z,0.71
2023-04-02T23:05:34.189Z,0.67
2023-04-02T23:08:01.706Z,0.65
2023-04-02T23:10:30.677Z,0.65
2023-04-02T23:12:58.460Z,0.66
2023-04-02T23:15:26.137Z,0.70
2023-04-02T23:17:53.657Z,0.73
2023-04-02T23:20:21.245Z,0.76
2023-04-02T23:22:48.950Z,0.80
2023-04-02T23:25:16.474Z,0.81
2023-04-02T23:27:43.990Z,0.83
2023-04-02T23:30:11.536Z,0.82
2023-04-02T23:32:39.139Z,0.77
2023-04-02T23:35:06.708Z,0.79
2023-04-02T23:37:34.212Z,0.81
2023-04-02T23:40:01.789Z,0.80
2023-04-02T23:42:29.390Z,0.79
2023-04-02T23:44:56.903Z,0.81
2023-04-02T23:47:24.376Z,0.78
2023-04-02T23:49:51.856Z,0.70
2023-04-02T23:52:19.453Z,0.63
2023-04-02T23:54:47.165Z,0.58
2023-04-02T23:57:15.932Z,0.53
2023-04-02T23:59:43.503Z,0.52
